Time;durP1;ratioP1;P1;durP2;ratioP2;P2;SDS_P1;SDS_P2;PMS_P1;PMS_P2;Temp;Humidity;BMP_temperature;BMP_pressure;BME280_temperature;BME280_humidity;BME280_pressure;Samples;Min_cycle;Max_cycle;Signal;HPM_P1;HPM_P2
2023/12/25 00:01:20;;;;;;;14.95;6.45;;;;;;;3.52;80.16;94599.97;4988543;28;20507;-69
2023/12/25 00:03:45;;;;;;;18.25;7.93;;;;;;;3.74;78.58;94588.44;4988208;28;20018;-69
2023/12/25 00:06:10;;;;;;;17.65;7.53;;;;;;;3.60;78.33;94585.88;4987722;28;20042;-69
2023/12/25 00:08:36;;;;;;;13.23;5.93;;;;;;;3.31;79.56;94573.78;4973793;28;20109;-69
2023/12/25 00:11:01;;;;;;;13.43;6.93;;;;;;;3.31;80.22;94591.75;4988459;28;20047;-68
2023/12/25 00:13:27;;;;;;;13.90;7.10;;;;;;;3.29;79.24;94588.47;4973174;28;20030;-69
2023/12/25 00:15:52;;;;;;;8.43;4.13;;;;;;;3.46;78.14;94584.09;4972572;28;20058;-68
2023/12/25 00:18:17;;;;;;;9.40;4.63;;;;;;;3.47;77.87;94578.03;4973200;28;20461;-68
2023/12/25 00:20:43;;;;;;;7.93;4.40;;;;;;;3.33;78.64;94569.41;4972104;28;20046;-69
2023/12/25 00:23:08;;;;;;;6.95;3.60;;;;;;;3.53;77.64;94570.78;4973249;28;20115;-68
2023/12/25 00:25:34;;;;;;;8.95;4.07;;;;;;;3.42;77.75;94560.31;4955905;28;20500;-69
2023/12/25 00:27:59;;;;;;;7.78;3.85;;;;;;;3.47;77.61;94578.88;4971555;28;20031;-68
2023/12/25 00:30:24;;;;;;;6.57;3.95;;;;;;;3.37;77.67;94580.31;4971837;28;20039;-68
2023/12/25 00:32:50;;;;;;;7.50;4.50;;;;;;;3.35;78.04;94579.59;4971663;28;20097;-68
2023/12/25 00:35:15;;;;;;;12.93;5.70;;;;;;;3.41;78.36;94571.53;4971750;28;20030;-68
2023/12/25 00:37:41;;;;;;;10.30;4.65;;;;;;;3.50;78.12;94568.41;4971767;28;20035;-68
2023/12/25 00:40:07;;;;;;;6.57;3.53;;;;;;;3.54;77.11;94561.38;4971610;28;20421;-69
2023/12/25 00:42:32;;;;;;;11.93;4.65;;;;;;;2.98;78.23;94545.78;4955363;28;20125;-69
2023/12/25 00:44:58;;;;;;;57.90;19.98;;;;;;;2.94;79.29;94571.69;4955618;28;20477;-69
2023/12/25 00:47:23;;;;;;;72.88;24.65;;;;;;;2.98;79.02;94568.88;4971396;28;20027;-69
2023/12/25 00:49:48;;;;;;;18.83;9.05;;;;;;;3.00;78.24;94561.91;4972783;28;20034;-69
2023/12/25 00:52:17;;;;;;;29.42;12.10;;;;;;;2.81;79.22;94576.69;4971225;28;20409;-70
2023/12/25 00:54:42;;;;;;;24.77;13.05;;;;;;;2.83;79.61;94577.44;4971935;28;20316;-71
2023/12/25 00:57:08;;;;;;;15.48;7.38;;;;;;;3.13;78.76;94578.25;4971098;28;20082;-69
2023/12/25 00:59:33;;;;;;;6.78;4.22;;;;;;;2.57;79.06;94572.03;4971183;28;20038;-69
2023/12/25 01:01:59;;;;;;;13.48;7.00;;;;;;;2.58;79.55;94586.50;4971437;28;20059;-69
2023/12/25 01:04:25;;;;;;;8.73;5.00;;;;;;;2.69;80.40;94589.28;4972342;28;20078;-69
2023/12/25 01:06:50;;;;;;;12.27;4.70;;;;;;;2.59;80.23;94587.31;4971260;28;20030;-70
2023/12/25 01:09:16;;;;;;;9.85;4.80;;;;;;;2.67;79.69;94585.16;4971121;28;20035;-69
2023/12/25 01:11:42;;;;;;;9.98;5.53;;;;;;;2.63;80.03;94560.59;4970272;28;20432;-70
2023/12/25 01:14:08;;;;;;;11.85;5.68;;;;;;;2.65;79.99;94572.44;4971051;28;20038;-70
2023/12/25 01:16:33;;;;;;;9.70;5.10;;;;;;;2.73;80.49;94579.69;4955056;28;20030;-70
2023/12/25 01:18:59;;;;;;;9.38;5.13;;;;;;;2.72;80.46;94588.28;4970808;28;20034;-68
2023/12/25 01:21:24;;;;;;;9.90;5.72;;;;;;;2.77;79.41;94581.16;4972174;28;20038;-68
2023/12/25 01:23:49;;;;;;;10.60;5.18;;;;;;;2.61;79.64;94580.38;4971138;28;20037;-70
2023/12/25 01:26:15;;;;;;;9.75;5.15;;;;;;;2.49;80.69;94581.88;4971030;28;20031;-70
2023/12/25 01:28:41;;;;;;;11.90;5.20;;;;;;;2.43;80.97;94554.00;4970626;28;20544;-69
2023/12/25 01:31:06;;;;;;;7.93;4.30;;;;;;;2.76;81.16;94553.88;4972143;28;20118;-69
2023/12/25 01:33:31;;;;;;;6.85;3.75;;;;;;;2.81;80.89;94572.38;4972349;28;20038;-68
2023/12/25 01:35:57;;;;;;;8.20;4.05;;;;;;;2.80;80.88;94567.34;4970937;28;20513;-68
2023/12/25 01:38:22;;;;;;;8.32;3.80;;;;;;;2.62;81.29;94562.34;4970841;28;20038;-68
2023/12/25 01:40:48;;;;;;;6.70;3.80;;;;;;;2.81;80.54;94574.13;4971971;28;20042;-69
2023/12/25 01:43:13;;;;;;;8.20;4.07;;;;;;;2.67;81.49;94586.00;4970832;28;20034;-70
2023/12/25 01:45:38;;;;;;;8.30;3.50;;;;;;;2.63;81.29;94563.16;4972049;28;20484;-69
2023/12/25 01:48:05;;;;;;;6.70;4.25;;;;;;;2.65;81.52;94557.03;4972211;28;20046;-69
2023/12/25 01:50:30;;;;;;;7.72;3.92;;;;;;;2.42;81.36;94560.03;4970899;28;20035;-70
2023/12/25 01:52:56;;;;;;;11.90;5.32;;;;;;;2.54;81.27;94544.00;4954565;28;20034;-69
2023/12/25 01:55:21;;;;;;;9.52;5.00;;;;;;;2.57;81.78;94560.94;4970421;28;20039;-69
2023/12/25 01:57:46;;;;;;;6.38;4.38;;;;;;;2.65;82.05;94562.16;4954659;28;20401;-69
2023/12/25 02:00:12;;;;;;;11.55;4.85;;;;;;;2.72;81.55;94560.06;4970665;28;20440;-69
2023/12/25 02:02:39;;;;;;;11.82;4.82;;;;;;;2.51;83.06;94561.25;4971951;28;20054;-69
2023/12/25 02:05:04;;;;;;;8.13;4.63;;;;;;;2.32;83.12;94569.16;4970706;28;20047;-69
2023/12/25 02:07:30;;;;;;;10.32;5.90;;;;;;;2.68;82.11;94574.00;4954503;28;20482;-70
2023/12/25 02:09:55;;;;;;;10.23;5.63;;;;;;;2.56;82.77;94575.47;4954334;28;20506;-69
2023/12/25 02:12:21;;;;;;;9.95;4.95;;;;;;;2.39;83.25;94565.34;4954463;28;20062;-69
2023/12/25 02:14:46;;;;;;;10.15;4.70;;;;;;;2.81;82.10;94586.94;4971755;28;20027;-69
2023/12/25 02:17:12;;;;;;;10.43;4.75;;;;;;;2.45;82.29;94572.69;4954402;28;20030;-69
2023/12/25 02:19:39;;;;;;;9.50;4.88;;;;;;;2.39;83.54;94588.41;4954569;28;20121;-70
2023/12/25 02:22:07;;;;;;;9.23;3.80;;;;;;;2.63;82.79;94578.56;4954575;28;20526;-69
2023/12/25 02:24:32;;;;;;;9.68;4.22;;;;;;;2.69;81.86;94578.22;4954653;28;20121;-70
2023/12/25 02:26:57;;;;;;;6.22;3.83;;;;;;;2.59;82.29;94572.78;4970711;28;20031;-69
2023/12/25 02:29:23;;;;;;;11.07;3.80;;;;;;;2.54;81.91;94553.44;4955047;28;20456;-69
2023/12/25 02:31:48;;;;;;;10.40;4.18;;;;;;;2.38;82.45;94576.50;4973952;28;20241;-70
2023/12/25 02:34:14;;;;;;;7.95;4.20;;;;;;;2.43;82.85;94582.22;4975424;28;20042;-69
2023/12/25 02:36:40;;;;;;;9.75;6.20;;;;;;;2.62;82.27;94558.97;4990200;28;20033;-69
2023/12/25 02:39:05;;;;;;;11.88;6.03;;;;;;;2.49;82.73;94570.81;4974270;28;20031;-69
2023/12/25 02:41:31;;;;;;;11.30;7.30;;;;;;;2.40;82.65;94542.19;4989965;28;20050;-69
2023/12/25 02:43:56;;;;;;;12.88;5.22;;;;;;;2.54;82.40;94558.56;4974662;28;20503;-69
2023/12/25 02:46:21;;;;;;;11.43;4.50;;;;;;;2.65;82.54;94595.50;4975029;28;20042;-69
2023/12/25 02:48:47;;;;;;;12.95;7.57;;;;;;;2.75;82.05;94554.78;4975417;28;20030;-69
2023/12/25 02:51:12;;;;;;;12.95;6.10;;;;;;;2.83;81.78;94559.47;4990033;28;20043;-69
2023/12/25 02:53:38;;;;;;;12.27;6.15;;;;;;;2.90;81.61;94576.19;4975109;28;20045;-69
2023/12/25 02:56:03;;;;;;;8.15;4.45;;;;;;;2.80;81.13;94554.53;4973688;28;20109;-69
2023/12/25 02:58:29;;;;;;;7.53;3.97;;;;;;;2.61;81.43;94591.44;4988870;28;20530;-69
2023/12/25 03:00:54;;;;;;;7.38;4.15;;;;;;;2.64;80.98;94575.88;4974479;28;20050;-70
2023/12/25 03:03:20;;;;;;;5.88;3.33;;;;;;;2.42;81.12;94560.03;4974793;28;20469;-69
2023/12/25 03:05:45;;;;;;;10.93;3.17;;;;;;;2.52;81.70;94588.56;4974653;28;20034;-69
2023/12/25 03:08:10;;;;;;;7.05;3.05;;;;;;;2.61;81.90;94595.75;4973283;28;20627;-69
2023/12/25 03:10:36;;;;;;;7.53;4.35;;;;;;;2.66;82.42;94588.63;4972684;28;20042;-69
2023/12/25 03:13:01;;;;;;;9.05;3.70;;;;;;;2.73;82.39;94597.66;4974010;28;20062;-69
2023/12/25 03:15:27;;;;;;;7.78;4.05;;;;;;;2.67;82.10;94606.53;4973494;28;20504;-69
2023/12/25 03:17:52;;;;;;;6.53;3.80;;;;;;;2.64;82.25;94591.28;4973279;28;20027;-70
2023/12/25 03:20:17;;;;;;;7.13;3.80;;;;;;;2.87;81.43;94597.72;4973111;28;20497;-70
2023/12/25 03:22:44;;;;;;;9.80;3.20;;;;;;;2.76;82.43;94579.53;4973184;28;20426;-70
2023/12/25 03:25:10;;;;;;;6.55;3.28;;;;;;;2.97;81.32;94603.13;4957046;28;20497;-70
2023/12/25 03:27:35;;;;;;;9.20;3.55;;;;;;;2.90;81.48;94599.28;4957000;28;20089;-69
2023/12/25 03:30:01;;;;;;;6.55;3.30;;;;;;;2.79;82.15;94605.00;4973097;28;20405;-70
2023/12/25 03:32:26;;;;;;;5.85;3.40;;;;;;;2.64;82.30;94610.97;4972769;28;20046;-69
2023/12/25 03:34:51;;;;;;;9.00;3.80;;;;;;;2.96;81.92;94622.03;4972302;28;20042;-70
2023/12/25 03:37:17;;;;;;;6.80;3.00;;;;;;;2.93;81.67;94606.81;4972048;28;20046;-69
2023/12/25 03:39:42;;;;;;;4.97;3.15;;;;;;;3.06;81.07;94640.28;4955327;28;20027;-69
2023/12/25 03:42:08;;;;;;;6.43;3.65;;;;;;;3.04;80.16;94629.31;4974014;28;20054;-69
2023/12/25 03:44:33;;;;;;;9.75;3.45;;;;;;;3.04;81.13;94622.44;4972419;28;20023;-69
2023/12/25 03:46:58;;;;;;;8.57;3.80;;;;;;;3.00;81.84;94626.06;4973915;28;20041;-69
2023/12/25 03:49:24;;;;;;;7.45;3.95;;;;;;;2.78;81.88;94607.66;4973833;28;20030;-68
2023/12/25 03:51:49;;;;;;;5.68;3.88;;;;;;;3.06;81.63;94637.72;4972638;28;20046;-68
2023/12/25 03:54:15;;;;;;;8.18;3.70;;;;;;;3.22;80.55;94628.25;4973613;28;20568;-68
2023/12/25 03:56:40;;;;;;;6.57;3.47;;;;;;;3.04;80.73;94648.09;4973549;28;20082;-68
2023/12/25 03:59:05;;;;;;;6.97;3.55;;;;;;;3.27;80.50;94640.84;4974162;28;20041;-68
2023/12/25 04:01:31;;;;;;;7.00;3.38;;;;;;;3.17;79.95;94639.69;4972496;28;20398;-68
2023/12/25 04:03:56;;;;;;;5.68;3.20;;;;;;;3.14;80.71;94640.69;4972551;28;20042;-68
2023/12/25 04:06:23;;;;;;;6.95;3.10;;;;;;;3.30;80.81;94633.78;4973534;28;20077;-68
2023/12/25 04:08:49;;;;;;;8.10;3.80;;;;;;;3.25;80.66;94637.50;4956433;28;20026;-68
2023/12/25 04:11:21;;;;;;;8.88;3.60;;;;;;;3.09;81.22;94642.69;4972177;28;20398;-68
2023/12/25 04:13:47;;;;;;;4.43;2.95;;;;;;;3.41;80.16;94638.28;4972280;28;20497;-68
2023/12/25 04:16:20;;;;;;;9.20;3.80;;;;;;;3.18;80.86;94651.63;4956088;28;20039;-69
2023/12/25 04:18:45;;;;;;;8.57;3.30;;;;;;;3.06;80.66;94635.16;4972315;28;20089;-68
2023/12/25 04:21:26;;;;;;;7.45;3.92;;;;;;;3.28;79.92;94627.88;4954806;28;20415;-68
2023/12/25 04:23:53;;;;;;;9.07;3.72;;;;;;;3.44;79.40;94638.13;4965321;28;20022;-68
2023/12/25 04:26:19;;;;;;;7.20;2.85;;;;;;;3.44;79.31;94645.81;4958419;28;20424;-68
2023/12/25 04:28:45;;;;;;;5.65;3.05;;;;;;;3.35;79.37;94628.38;4970968;28;20031;-68
2023/12/25 04:31:11;;;;;;;6.70;3.22;;;;;;;3.40;79.10;94625.53;4955406;28;20429;-69
2023/12/25 04:33:36;;;;;;;8.43;3.03;;;;;;;3.44;79.21;94621.88;4972383;28;20035;-68
2023/12/25 04:36:03;;;;;;;10.75;3.15;;;;;;;3.63;78.69;94639.63;4972710;28;20026;-68
2023/12/25 04:38:28;;;;;;;8.77;2.63;;;;;;;3.57;78.79;94625.41;4971087;28;20042;-68
2023/12/25 04:40:54;;;;;;;6.72;2.95;;;;;;;3.68;77.83;94638.44;4971282;28;20027;-68
2023/12/25 04:43:19;;;;;;;11.88;3.15;;;;;;;3.67;78.12;94628.25;4971067;28;20031;-68
2023/12/25 04:45:45;;;;;;;9.13;2.90;;;;;;;3.70;78.19;94618.59;4972458;28;20039;-69
2023/12/25 04:48:10;;;;;;;7.22;3.15;;;;;;;3.83;77.63;94628.19;4972707;28;20022;-68
2023/12/25 04:50:36;;;;;;;6.15;3.00;;;;;;;3.97;77.19;94628.19;4986960;28;20042;-68
2023/12/25 04:53:01;;;;;;;7.20;3.00;;;;;;;3.90;77.46;94624.31;4972443;28;20070;-68
2023/12/25 04:55:28;;;;;;;6.97;3.15;;;;;;;3.79;77.87;94619.84;4971819;28;20412;-68
2023/12/25 04:57:53;;;;;;;5.43;2.55;;;;;;;4.11;76.56;94648.75;4971152;28;20038;-68
2023/12/25 05:00:19;;;;;;;8.43;3.88;;;;;;;3.87;76.53;94639.91;4987071;28;20038;-70
2023/12/25 05:02:44;;;;;;;14.65;6.53;;;;;;;3.79;77.03;94653.25;4954319;28;20041;-68
2023/12/25 05:05:09;;;;;;;10.05;4.55;;;;;;;3.73;77.68;94638.16;4954516;28;20034;-68
2023/12/25 05:07:35;;;;;;;11.43;3.90;;;;;;;3.62;77.86;94641.34;4970887;28;20023;-68
2023/12/25 05:10:00;;;;;;;4.45;2.60;;;;;;;3.76;77.92;94632.84;4971655;28;20493;-69
2023/12/25 05:12:25;;;;;;;4.75;2.65;;;;;;;3.87;77.25;94634.78;4954445;28;20042;-69
2023/12/25 05:14:51;;;;;;;8.25;2.80;;;;;;;3.72;77.67;94627.06;4953838;28;20030;-69
2023/12/25 05:17:17;;;;;;;8.55;2.90;;;;;;;3.66;78.09;94621.47;4971565;28;20409;-69
2023/12/25 05:19:42;;;;;;;5.05;2.35;;;;;;;3.51;78.75;94593.19;4954551;28;20027;-69
2023/12/25 05:22:08;;;;;;;6.97;2.80;;;;;;;3.55;79.34;94622.91;4971925;28;20035;-69
2023/12/25 05:24:33;;;;;;;5.28;3.25;;;;;;;3.73;79.50;94630.44;4986422;28;20042;-68
2023/12/25 05:26:59;;;;;;;7.53;3.65;;;;;;;3.70;78.25;94639.16;4970540;28;20027;-68
2023/12/25 05:29:24;;;;;;;4.82;3.03;;;;;;;3.77;78.06;94640.47;4953704;28;20078;-68
2023/12/25 05:31:50;;;;;;;10.02;5.18;;;;;;;4.05;76.93;94653.44;4953940;28;20386;-70
2023/12/25 05:34:15;;;;;;;16.13;7.20;;;;;;;3.84;76.90;94650.38;4969923;28;20042;-69
2023/12/25 05:36:41;;;;;;;27.85;19.48;;;;;;;3.77;76.98;94645.59;4970227;28;20070;-68
2023/12/25 05:39:06;;;;;;;33.30;23.92;;;;;;;3.71;76.78;94658.00;4971635;28;20080;-69
2023/12/25 05:41:32;;;;;;;27.17;18.20;;;;;;;3.61;77.39;94646.59;4965466;28;20062;-69
2023/12/25 05:43:57;;;;;;;30.27;17.20;;;;;;;3.35;77.25;94636.09;4963896;28;20519;-68
2023/12/25 05:46:22;;;;;;;20.35;13.30;;;;;;;3.28;78.39;94647.59;4965785;28;20046;-69
2023/12/25 05:48:48;;;;;;;7.57;4.72;;;;;;;3.58;77.65;94663.81;4964969;28;20038;-69
2023/12/25 05:51:13;;;;;;;11.13;4.28;;;;;;;3.54;76.82;94652.09;4966239;28;20027;-68
2023/12/25 05:53:39;;;;;;;7.40;4.00;;;;;;;3.25;77.30;94673.47;4981432;28;20034;-67
2023/12/25 05:56:04;;;;;;;6.88;3.85;;;;;;;3.02;77.70;94682.44;4964219;28;20402;-67
2023/12/25 05:58:30;;;;;;;4.32;3.25;;;;;;;3.31;76.83;94684.19;4963227;28;20058;-67
2023/12/25 06:00:55;;;;;;;12.75;5.13;;;;;;;3.25;76.63;94674.28;4972196;28;20042;-67
2023/12/25 06:03:21;;;;;;;113.35;28.73;;;;;;;2.91;78.34;94672.78;4983160;28;20042;-67
2023/12/25 06:05:46;;;;;;;48.00;15.75;;;;;;;2.94;78.33;94656.38;4953151;28;20042;-67
2023/12/25 06:08:12;;;;;;;9.80;4.57;;;;;;;3.03;78.53;94661.00;4952720;28;20361;-67
2023/12/25 06:10:37;;;;;;;5.80;3.45;;;;;;;2.74;79.96;94678.00;4969462;28;20035;-65
2023/12/25 06:13:03;;;;;;;8.00;4.03;;;;;;;2.82;80.24;94660.47;4971881;28;20038;-68
2023/12/25 06:15:28;;;;;;;29.52;17.08;;;;;;;3.10;79.12;94686.25;4971732;28;20031;-69
2023/12/25 06:17:53;;;;;;;14.82;7.70;;;;;;;3.19;78.79;94689.22;4969676;28;20034;-67
2023/12/25 06:20:20;;;;;;;12.32;6.63;;;;;;;3.36;78.64;94713.03;4988129;28;20046;-67
2023/12/25 06:22:46;;;;;;;16.35;7.97;;;;;;;3.38;78.46;94709.56;4971500;28;20101;-67
2023/12/25 06:25:11;;;;;;;14.25;7.70;;;;;;;3.24;78.13;94682.91;4986347;28;20511;-67
2023/12/25 06:27:37;;;;;;;15.80;7.85;;;;;;;3.14;78.69;94718.53;4990979;28;20106;-68
2023/12/25 06:30:04;;;;;;;9.40;6.20;;;;;;;3.31;78.56;94729.59;5004384;28;20428;-67
2023/12/25 06:32:29;;;;;;;9.75;5.35;;;;;;;3.07;78.95;94722.34;4988251;28;20117;-67
2023/12/25 06:34:55;;;;;;;10.90;5.30;;;;;;;3.06;79.20;94725.81;4971101;28;20050;-67
2023/12/25 06:37:20;;;;;;;13.18;6.72;;;;;;;3.09;79.57;94730.81;4975024;28;20027;-66
2023/12/25 06:39:46;;;;;;;7.78;3.30;;;;;;;3.49;77.67;94720.88;4975026;28;20034;-66
2023/12/25 06:42:14;;;;;;;6.18;3.10;;;;;;;3.48;78.26;94716.66;4953484;28;20149;-67
2023/12/25 06:44:40;;;;;;;9.20;3.40;;;;;;;3.58;77.62;94697.22;4969871;28;20035;-67
2023/12/25 06:47:05;;;;;;;7.05;3.45;;;;;;;3.89;76.60;94713.44;4989958;28;20081;-67
2023/12/25 06:49:31;;;;;;;10.57;4.60;;;;;;;4.12;75.83;94713.84;4970718;28;20034;-67
2023/12/25 06:51:56;;;;;;;10.18;4.57;;;;;;;4.12;75.66;94695.84;4969050;28;20456;-67
2023/12/25 06:54:22;;;;;;;8.77;4.57;;;;;;;4.09;75.34;94685.75;4969363;28;20502;-67
2023/12/25 06:56:48;;;;;;;10.68;4.88;;;;;;;3.94;75.84;94690.88;4968930;28;20532;-66
2023/12/25 06:59:13;;;;;;;8.70;4.82;;;;;;;4.16;75.73;94718.72;4984919;28;21264;-67
2023/12/25 07:01:39;;;;;;;12.32;6.18;;;;;;;3.88;76.58;94727.22;4970894;28;20027;-67
2023/12/25 07:04:04;;;;;;;9.00;5.18;;;;;;;3.95;76.28;94719.97;4999473;28;20026;-67
2023/12/25 07:06:30;;;;;;;11.40;4.65;;;;;;;4.10;75.87;94724.22;4972836;28;20520;-67
2023/12/25 07:08:55;;;;;;;11.55;5.60;;;;;;;4.18;75.23;94727.19;4967684;28;20027;-68
2023/12/25 07:11:21;;;;;;;6.35;3.40;;;;;;;4.19;74.66;94723.66;4985258;28;20053;-68
2023/12/25 07:13:47;;;;;;;5.80;2.72;;;;;;;4.20;74.06;94721.91;4990493;28;20477;-67
2023/12/25 07:16:32;;;;;;;7.50;3.67;;;;;;;4.50;72.48;94721.84;4985247;28;20452;-68
2023/12/25 07:18:58;;;;;;;5.97;2.45;;;;;;;4.57;72.43;94715.41;4967968;28;20035;-67
2023/12/25 07:21:23;;;;;;;6.47;2.70;;;;;;;4.79;71.24;94730.38;4969841;28;20422;-67
2023/12/25 07:23:49;;;;;;;7.20;2.72;;;;;;;4.96;70.36;94733.63;4970760;28;20027;-68
2023/12/25 07:26:17;;;;;;;8.45;2.88;;;;;;;5.12;70.19;94729.19;4969811;28;20516;-67
2023/12/25 07:28:42;;;;;;;5.85;3.45;;;;;;;5.21;70.72;94738.94;4968043;28;20066;-68
2023/12/25 07:31:08;;;;;;;9.77;3.67;;;;;;;5.31;71.18;94739.97;4985605;28;20416;-67
2023/12/25 07:33:34;;;;;;;7.20;2.92;;;;;;;5.27;71.53;94737.72;4986252;28;20036;-68
2023/12/25 07:36:00;;;;;;;7.05;3.25;;;;;;;5.03;72.46;94724.63;4973386;28;20101;-67
2023/12/25 07:38:25;;;;;;;4.57;2.58;;;;;;;5.06;71.54;94727.00;4956631;28;20509;-70
2023/12/25 07:40:51;;;;;;;14.30;7.18;;;;;;;5.18;71.28;94723.63;4969377;28;20034;-71
2023/12/25 07:43:16;;;;;;;7.25;3.72;;;;;;;5.31;71.47;94726.28;4972454;28;20027;-68
2023/12/25 07:45:41;;;;;;;8.55;3.05;;;;;;;5.15;71.94;94734.13;4970362;28;20031;-67
2023/12/25 07:48:07;;;;;;;5.43;2.92;;;;;;;5.30;72.46;94753.78;4983614;28;20039;-72
2023/12/25 07:50:33;;;;;;;5.38;2.83;;;;;;;5.31;72.37;94758.00;4971616;28;20084;-68
2023/12/25 07:52:58;;;;;;;5.88;3.35;;;;;;;5.11;71.72;94750.72;4973771;28;20038;-68
2023/12/25 07:55:24;;;;;;;5.72;2.83;;;;;;;5.21;71.84;94754.38;4972347;28;20039;-69
2023/12/25 07:57:49;;;;;;;11.00;5.25;;;;;;;5.30;71.77;94758.94;4970601;28;20105;-67
2023/12/25 08:00:15;;;;;;;9.20;4.53;;;;;;;5.49;72.00;94763.75;4987803;28;20045;-68
2023/12/25 08:02:40;;;;;;;8.52;5.20;;;;;;;5.48;72.04;94766.44;4972471;28;20683;-66
2023/12/25 08:05:06;;;;;;;12.73;6.95;;;;;;;5.52;71.83;94773.06;4972478;28;20428;-67
2023/12/25 08:07:32;;;;;;;14.43;8.77;;;;;;;5.41;71.55;94757.44;4968170;28;20440;-69
2023/12/25 08:09:57;;;;;;;9.85;5.30;;;;;;;5.50;70.35;94777.47;4977792;28;20448;-67
2023/12/25 08:12:22;;;;;;;7.60;3.53;;;;;;;5.80;69.21;94766.94;4955789;28;20093;-69
2023/12/25 08:14:48;;;;;;;7.63;4.03;;;;;;;5.92;70.10;94771.31;4971513;28;20038;-66
2023/12/25 08:17:13;;;;;;;4.70;2.65;;;;;;;6.18;67.33;94772.19;4973072;28;20031;-68
2023/12/25 08:19:39;;;;;;;5.15;2.63;;;;;;;6.44;64.86;94761.91;4971953;28;20500;-68
2023/12/25 08:22:05;;;;;;;7.85;2.95;;;;;;;6.63;65.91;94757.16;4987519;28;20039;-69
2023/12/25 08:24:30;;;;;;;4.32;2.38;;;;;;;7.00;62.60;94769.28;4971887;28;20045;-68
2023/12/25 08:26:55;;;;;;;5.15;3.10;;;;;;;7.14;64.24;94782.88;4954742;28;20091;-68
2023/12/25 08:29:21;;;;;;;8.60;2.97;;;;;;;7.25;62.72;94773.56;4971799;28;20030;-68
2023/12/25 08:31:47;;;;;;;6.25;3.15;;;;;;;7.53;61.79;94757.75;4971625;28;20053;-68
2023/12/25 08:34:12;;;;;;;11.68;5.25;;;;;;;7.72;60.58;94759.84;4972888;28;20085;-68
2023/12/25 08:36:37;;;;;;;6.95;3.30;;;;;;;7.85;60.74;94757.16;4972687;28;20030;-68
2023/12/25 08:39:04;;;;;;;5.40;3.50;;;;;;;7.83;61.77;94753.91;4972242;28;20089;-68
2023/12/25 08:41:30;;;;;;;7.47;2.97;;;;;;;8.12;59.46;94756.09;4972170;28;20115;-67
2023/12/25 08:43:55;;;;;;;9.38;4.00;;;;;;;8.09;60.59;94754.56;4962415;28;20456;-67
2023/12/25 08:46:20;;;;;;;15.73;8.10;;;;;;;8.49;63.01;94757.59;4955351;28;20043;-67
2023/12/25 08:48:47;;;;;;;12.43;7.53;;;;;;;8.49;62.55;94751.59;4978313;28;20088;-67
2023/12/25 08:51:13;;;;;;;10.77;6.05;;;;;;;8.73;62.28;94761.88;4987991;28;20078;-67
2023/12/25 08:53:38;;;;;;;6.65;3.72;;;;;;;8.80;61.61;94751.84;4972992;28;20413;-67
2023/12/25 08:56:04;;;;;;;6.70;3.83;;;;;;;8.65;62.00;94707.25;4972417;28;20039;-67
2023/12/25 08:58:30;;;;;;;15.00;8.63;;;;;;;8.91;61.76;94713.84;4972700;28;20469;-67
2023/12/25 09:00:55;;;;;;;13.98;7.43;;;;;;;8.92;60.85;94732.78;4972555;28;20042;-68
2023/12/25 09:03:21;;;;;;;9.82;4.90;;;;;;;9.11;61.97;94742.53;4971302;28;20030;-68
2023/12/25 09:05:46;;;;;;;10.30;4.97;;;;;;;8.97;61.49;94746.22;4954722;28;20098;-67
2023/12/25 09:08:12;;;;;;;10.10;4.43;;;;;;;9.16;61.43;94724.84;4965852;28;20027;-66
2023/12/25 09:10:37;;;;;;;8.73;3.83;;;;;;;9.01;62.31;94675.06;4966869;28;20432;-71
2023/12/25 09:13:03;;;;;;;8.70;4.78;;;;;;;9.27;61.60;94698.91;4967919;28;20045;-68
2023/12/25 09:15:29;;;;;;;10.65;5.68;;;;;;;9.12;59.38;94700.13;4985399;28;20363;-71
2023/12/25 09:17:54;;;;;;;8.55;4.68;;;;;;;9.27;60.10;94722.25;4970277;28;20499;-68
2023/12/25 09:20:20;;;;;;;13.95;6.85;;;;;;;9.40;57.87;94698.78;4954871;28;20038;-70
2023/12/25 09:22:45;;;;;;;7.80;4.75;;;;;;;9.39;56.88;94699.72;4983274;28;20025;-70
2023/12/25 09:25:11;;;;;;;8.55;4.72;;;;;;;9.74;60.29;94706.44;4962298;28;20030;-70
2023/12/25 09:27:37;;;;;;;11.82;6.35;;;;;;;9.69;57.13;94687.81;4966910;28;20019;-71
2023/12/25 09:30:03;;;;;;;7.55;5.00;;;;;;;9.80;57.94;94691.16;4987122;28;20089;-70
2023/12/25 09:32:30;;;;;;;12.32;6.57;;;;;;;9.91;56.34;94689.47;4970332;28;20035;-72
2023/12/25 09:34:55;;;;;;;9.38;3.25;;;;;;;9.71;55.26;94684.16;4970892;28;20034;-70
2023/12/25 09:37:20;;;;;;;5.70;3.80;;;;;;;9.91;54.00;94692.06;4971477;28;20037;-70
2023/12/25 09:39:46;;;;;;;7.50;2.80;;;;;;;10.20;52.06;94685.31;4970053;28;20417;-68
2023/12/25 09:42:11;;;;;;;12.25;5.35;;;;;;;10.24;54.05;94691.06;4969287;28;20105;-68
2023/12/25 09:44:40;;;;;;;9.70;5.25;;;;;;;10.05;53.91;94686.56;4969353;28;20031;-68
2023/12/25 09:47:06;;;;;;;8.90;4.60;;;;;;;9.96;53.83;94693.34;4969352;28;20485;-68
2023/12/25 09:49:34;;;;;;;7.40;4.20;;;;;;;10.19;53.83;94682.81;4986347;28;20529;-68
2023/12/25 09:52:00;;;;;;;7.50;3.13;;;;;;;10.26;53.30;94689.97;4969353;28;20041;-68
2023/12/25 09:54:25;;;;;;;5.40;2.88;;;;;;;10.57;52.54;94686.63;4970314;28;20839;-68
2023/12/25 09:56:51;;;;;;;9.55;4.43;;;;;;;10.37;53.38;94691.72;4969274;28;20030;-68
2023/12/25 09:59:16;;;;;;;8.45;4.03;;;;;;;10.55;53.20;94680.72;4970454;28;20027;-68
2023/12/25 10:01:41;;;;;;;7.63;3.35;;;;;;;10.66;52.68;94681.44;4986714;28;20409;-68
2023/12/25 10:04:07;;;;;;;7.90;3.63;;;;;;;10.40;52.71;94672.47;4970086;28;20042;-68
2023/12/25 10:06:32;;;;;;;8.48;4.40;;;;;;;10.83;52.87;94679.19;4968498;28;20031;-68
2023/12/25 10:08:58;;;;;;;8.70;5.47;;;;;;;10.81;52.82;94675.91;4970015;28;20026;-68
2023/12/25 10:11:23;;;;;;;8.30;4.45;;;;;;;10.81;52.36;94673.28;4969801;28;20035;-68
2023/12/25 10:13:48;;;;;;;7.88;3.80;;;;;;;11.19;49.80;94678.59;4969884;28;20416;-68
2023/12/25 10:16:14;;;;;;;6.47;3.40;;;;;;;11.23;49.79;94684.38;4968387;28;20027;-68
2023/12/25 10:18:39;;;;;;;9.80;4.30;;;;;;;11.21;49.85;94677.66;4970089;28;20023;-69
2023/12/25 10:21:05;;;;;;;7.38;3.58;;;;;;;11.39;50.23;94679.47;4986321;28;20151;-69
2023/12/25 10:23:32;;;;;;;10.23;4.45;;;;;;;11.28;50.54;94677.00;4970332;28;20031;-69
2023/12/25 10:25:59;;;;;;;10.63;4.78;;;;;;;11.18;50.58;94687.38;4971452;28;20161;-69
2023/12/25 10:28:28;;;;;;;10.90;5.25;;;;;;;11.33;50.67;94677.38;4970484;28;20031;-70
2023/12/25 10:31:03;;;;;;;8.45;4.07;;;;;;;11.60;50.60;94674.13;4970029;28;20035;-70
2023/12/25 10:33:30;;;;;;;9.05;4.07;;;;;;;11.62;49.05;94663.59;4969259;28;20039;-69
2023/12/25 10:36:05;;;;;;;8.07;5.53;;;;;;;11.73;50.04;94668.66;4969774;28;20030;-70
2023/12/25 10:38:37;;;;;;;10.05;4.10;;;;;;;11.88;50.03;94657.88;4985247;28;20022;-69
2023/12/25 10:41:19;;;;;;;7.10;4.32;;;;;;;11.86;49.67;94650.19;4984086;28;20055;-69
2023/12/25 10:43:49;;;;;;;8.05;4.38;;;;;;;12.14;51.27;94647.69;4963268;28;20086;-70
2023/12/25 10:46:14;;;;;;;7.80;3.47;;;;;;;12.39;50.70;94654.06;4951577;28;20174;-70
2023/12/25 10:48:40;;;;;;;7.70;3.30;;;;;;;12.43;51.52;94637.19;4950914;28;20035;-70
2023/12/25 10:51:05;;;;;;;5.90;3.10;;;;;;;12.46;49.60;94644.72;4956555;28;20035;-70
2023/12/25 10:53:30;;;;;;;7.00;3.88;;;;;;;12.60;49.79;94649.47;4973352;28;20061;-70
2023/12/25 10:55:56;;;;;;;6.55;3.28;;;;;;;12.71;49.38;94645.84;4971676;28;20492;-70
2023/12/25 10:58:21;;;;;;;4.93;2.88;;;;;;;12.86;50.12;94640.97;4973514;28;20033;-70
2023/12/25 11:00:51;;;;;;;6.55;3.10;;;;;;;12.94;49.95;94634.06;4972333;28;20034;-70
2023/12/25 11:03:16;;;;;;;6.40;3.05;;;;;;;12.88;49.28;94632.03;4971120;28;20390;-70
2023/12/25 11:05:42;;;;;;;5.03;3.13;;;;;;;13.04;47.14;94631.41;4971268;28;20042;-71
2023/12/25 11:08:07;;;;;;;10.38;5.93;;;;;;;13.07;47.61;94631.13;4971453;28;20520;-72
2023/12/25 11:10:33;;;;;;;7.82;4.40;;;;;;;13.08;47.57;94630.16;4963385;28;20038;-71
2023/12/25 11:12:58;;;;;;;5.15;3.00;;;;;;;13.15;48.26;94639.03;4986580;28;20046;-71
2023/12/25 11:15:24;;;;;;;7.40;3.22;;;;;;;13.16;48.04;94630.22;4981472;28;20034;-71
2023/12/25 11:17:49;;;;;;;5.82;3.08;;;;;;;13.01;47.88;94638.69;4973357;28;20030;-71
2023/12/25 11:20:15;;;;;;;8.30;2.92;;;;;;;13.06;49.99;94628.66;4995705;28;20073;-71
2023/12/25 11:22:40;;;;;;;7.07;3.50;;;;;;;12.80;48.42;94634.56;4978501;28;20042;-70
2023/12/25 11:25:17;;;;;;;8.38;4.10;;;;;;;12.94;49.44;94635.84;4972917;28;20140;-72
2023/12/25 11:27:43;;;;;;;7.57;4.32;;;;;;;12.87;47.94;94635.63;4973943;28;20088;-72
2023/12/25 11:30:10;;;;;;;8.10;3.80;;;;;;;13.03;49.63;94629.75;4974913;28;20472;-71